createdAt,value
2019-04-11T00:00:33.281Z,43.40
2019-04-11T00:03:05.061Z,43.30
2019-04-11T00:05:34.911Z,43.20
2019-04-11T00:08:03.889Z,43.30
2019-04-11T00:10:33.318Z,44.00
2019-04-11T00:13:14.305Z,43.80
2019-04-11T00:15:34.908Z,43.90
2019-04-11T00:18:03.593Z,44.00
2019-04-11T00:20:32.539Z,44.20
2019-04-11T00:23:02.741Z,44.60
2019-04-11T00:25:31.666Z,44.40
2019-04-11T00:28:01.965Z,44.60
2019-04-11T00:30:30.542Z,44.60
2019-04-11T00:33:00.089Z,44.50
2019-04-11T00:35:31.429Z,44.40
2019-04-11T00:38:01.526Z,44.70
2019-04-11T00:40:30.217Z,44.70
2019-04-11T00:43:05.221Z,44.70
2019-04-11T00:45:35.920Z,44.60
2019-04-11T00:48:11.437Z,44.70
2019-04-11T00:50:40.245Z,44.40
2019-04-11T00:53:09.776Z,44.60
2019-04-11T00:55:39.742Z,44.60
2019-04-11T00:58:10.150Z,44.60
2019-04-11T01:00:39.750Z,45.20
2019-04-11T01:03:09.634Z,45.10
2019-04-11T01:05:39.351Z,45.20
2019-04-11T01:08:11.497Z,45.20
2019-04-11T01:10:41.434Z,45.30
2019-04-11T01:13:11.175Z,45.50
2019-04-11T01:15:41.398Z,45.70
2019-04-11T01:18:11.907Z,45.70
2019-04-11T01:20:40.526Z,45.60
2019-04-11T01:23:09.117Z,45.20
2019-04-11T01:25:38.850Z,45.60
2019-04-11T01:28:07.578Z,45.20
2019-04-11T01:30:40.901Z,46.30
2019-04-11T01:33:09.538Z,45.70
2019-04-11T01:35:39.527Z,45.90
2019-04-11T01:38:08.311Z,45.60
2019-04-11T01:40:37.871Z,45.90
2019-04-11T01:43:08.036Z,45.80
2019-04-11T01:45:37.832Z,45.90
2019-04-11T01:48:23.719Z,46.00
2019-04-11T01:50:53.547Z,45.80
2019-04-11T01:53:24.701Z,46.50
2019-04-11T01:55:53.564Z,46.50
2019-04-11T01:58:22.531Z,46.70
2019-04-11T02:00:56.770Z,46.60
2019-04-11T02:03:39.436Z,46.50
2019-04-11T02:06:08.340Z,46.60
2019-04-11T02:08:37.611Z,46.60
2019-04-11T02:11:07.095Z,47.70
2019-04-11T02:13:36.337Z,47.50
2019-04-11T02:16:05.070Z,47.80
2019-04-11T02:18:33.795Z,47.50
2019-04-11T02:21:03.207Z,47.70
2019-04-11T02:23:46.012Z,47.80
2019-04-11T02:26:16.774Z,47.30
2019-04-11T02:28:46.713Z,47.50
2019-04-11T02:31:17.151Z,47.80
2019-04-11T02:33:46.986Z,47.90
2019-04-11T02:36:16.702Z,48.00
2019-04-11T02:38:54.078Z,48.20
2019-04-11T02:41:19.010Z,48.20
2019-04-11T02:43:49.010Z,47.80
2019-04-11T02:46:28.548Z,48.00
2019-04-11T02:48:49.800Z,48.00
2019-04-11T02:51:18.628Z,47.80
2019-04-11T02:53:47.384Z,48.30
2019-04-11T02:56:17.418Z,48.40
2019-04-11T02:58:48.122Z,48.80
2019-04-11T03:01:17.913Z,48.40
2019-04-11T03:03:47.425Z,48.20
2019-04-11T03:06:17.556Z,48.70
2019-04-11T03:08:48.822Z,49.20
2019-04-11T03:11:19.182Z,49.00
2019-04-11T03:13:50.432Z,48.80
2019-04-11T03:16:32.795Z,49.40
2019-04-11T03:19:05.651Z,49.30
2019-04-11T03:21:24.460Z,49.60
2019-04-11T03:23:53.020Z,49.80
2019-04-11T03:26:24.921Z,49.50
2019-04-11T03:28:56.606Z,49.60
2019-04-11T03:32:04.711Z,49.50
2019-04-11T03:34:44.559Z,49.50
2019-04-11T03:39:15.282Z,49.90
2019-04-11T03:41:42.759Z,49.60
2019-04-11T03:44:03.606Z,49.90
2019-04-11T03:46:42.124Z,49.70
2019-04-11T03:49:03.781Z,49.30
2019-04-11T03:51:26.293Z,49.90
2019-04-11T03:53:56.790Z,49.90
2019-04-11T03:56:26.657Z,49.70
2019-04-11T03:58:56.022Z,49.50
2019-04-11T04:01:26.811Z,49.70
2019-04-11T04:03:55.820Z,49.70
2019-04-11T04:06:25.573Z,49.50
2019-04-11T04:08:55.951Z,49.60
2019-04-11T04:11:27.654Z,50.40
2019-04-11T04:14:03.358Z,50.40
2019-04-11T04:16:45.657Z,50.30
2019-04-11T04:19:24.860Z,50.80
2019-04-11T04:21:55.432Z,51.10
2019-04-11T04:24:34.841Z,50.90
2019-04-11T04:27:02.245Z,51.40
2019-04-11T04:29:34.829Z,50.90
2019-04-11T04:32:04.967Z,51.20
2019-04-11T04:34:33.935Z,51.10
2019-04-11T04:37:04.218Z,51.10
2019-04-11T04:39:34.513Z,51.20
2019-04-11T04:42:11.385Z,50.80
2019-04-11T04:44:34.286Z,51.50
2019-04-11T04:47:15.319Z,51.50
2019-04-11T04:49:34.528Z,51.00
2019-04-11T04:52:04.056Z,51.30
2019-04-11T04:54:34.754Z,51.50
2019-04-11T04:57:04.974Z,51.50
2019-04-11T04:59:37.485Z,51.60
2019-04-11T05:02:06.582Z,51.90
2019-04-11T05:04:36.117Z,51.40
2019-04-11T05:07:05.332Z,51.30
2019-04-11T05:09:34.149Z,52.00
2019-04-11T05:12:03.426Z,51.60
2019-04-11T05:14:32.163Z,51.70
2019-04-11T05:17:00.700Z,52.00
2019-04-11T05:19:30.007Z,51.90
2019-04-11T05:21:59.928Z,51.80
2019-04-11T05:24:30.500Z,51.80
2019-04-11T05:26:59.886Z,52.30
2019-04-11T05:29:29.231Z,52.50
2019-04-11T05:31:58.937Z,51.80
2019-04-11T05:34:27.989Z,52.70
2019-04-11T05:36:57.623Z,53.00
2019-04-11T05:39:29.562Z,52.50
2019-04-11T05:41:58.764Z,52.60
2019-04-11T05:44:28.408Z,52.30
2019-04-11T05:47:00.679Z,52.10
2019-04-11T05:49:36.667Z,52.80
2019-04-11T05:52:10.294Z,52.60
2019-04-11T05:54:49.456Z,52.80
2019-04-11T05:57:22.855Z,52.50
2019-04-11T05:59:49.964Z,52.90
2019-04-11T06:02:24.821Z,52.50
2019-04-11T06:05:11.049Z,52.60
2019-04-11T06:07:48.557Z,53.20
2019-04-11T06:10:16.189Z,52.40
2019-04-11T06:12:46.315Z,52.30
2019-04-11T06:15:20.006Z,52.40
2019-04-11T06:17:50.312Z,52.90
2019-04-11T06:20:37.568Z,52.80
2019-04-11T06:23:10.378Z,52.50
2019-04-11T06:25:47.169Z,52.70
2019-04-11T06:28:19.951Z,52.70
2019-04-11T06:30:50.760Z,52.90
2019-04-11T06:33:20.992Z,52.40
2019-04-11T06:36:09.546Z,52.30
2019-04-11T06:38:42.768Z,52.30
2019-04-11T06:41:28.445Z,52.20
2019-04-11T06:43:58.683Z,52.30
2019-04-11T06:46:50.516Z,52.20
2019-04-11T06:49:32.548Z,52.40
2019-04-11T06:52:02.655Z,52.40
2019-04-11T06:54:33.079Z,52.80
2019-04-11T06:57:03.442Z,52.70
2019-04-11T06:59:36.583Z,52.60
2019-04-11T07:02:18.048Z,52.20
2019-04-11T07:04:46.319Z,51.90
2019-04-11T07:07:16.439Z,52.00
2019-04-11T07:09:50.075Z,52.00
2019-04-11T07:12:24.940Z,52.10
2019-04-11T07:14:55.172Z,51.70
2019-04-11T07:17:43.725Z,51.80
2019-04-11T07:20:16.625Z,51.30
2019-04-11T07:23:03.756Z,51.30
2019-04-11T07:25:51.661Z,51.40
2019-04-11T07:28:25.342Z,51.60
2019-04-11T07:31:07.756Z,51.50
2019-04-11T07:33:54.166Z,51.50
2019-04-11T07:36:41.017Z,51.40
2019-04-11T07:39:12.719Z,51.40
2019-04-11T07:41:43.815Z,51.20
2019-04-11T07:44:21.845Z,51.40
2019-04-11T07:47:17.259Z,51.40
2019-04-11T07:49:40.887Z,51.00
2019-04-11T07:52:11.119Z,50.70
2019-04-11T07:54:39.723Z,50.60
2019-04-11T07:57:19.373Z,50.40
2019-04-11T07:59:59.940Z,50.10
2019-04-11T08:02:43.291Z,50.00
2019-04-11T08:05:30.242Z,49.90
2019-04-11T08:08:00.662Z,49.80
2019-04-11T08:10:33.730Z,50.00
2019-04-11T08:13:03.826Z,50.10
2019-04-11T08:15:39.954Z,49.90
2019-04-11T08:18:26.395Z,50.00
2019-04-11T08:21:12.810Z,50.90
2019-04-11T08:23:43.537Z,51.70
2019-04-11T08:26:26.258Z,51.20
2019-04-11T08:29:05.351Z,50.80
2019-04-11T08:31:30.639Z,50.40
2019-04-11T08:34:00.325Z,49.60
2019-04-11T08:36:31.616Z,46.70
2019-04-11T08:39:00.606Z,47.60
2019-04-11T08:41:40.141Z,46.50
2019-04-11T08:44:09.829Z,44.20
2019-04-11T08:46:40.070Z,45.10
2019-04-11T08:49:22.001Z,43.10
2019-04-11T08:51:51.662Z,43.00
2019-04-11T08:54:27.427Z,44.70
2019-04-11T08:56:55.969Z,45.20
2019-04-11T08:59:39.710Z,43.40
2019-04-11T09:02:08.679Z,43.40
2019-04-11T09:05:03.973Z,41.50
2019-04-11T09:07:27.562Z,40.00
2019-04-11T09:10:13.874Z,41.30
2019-04-11T09:12:44.824Z,40.70
2019-04-11T09:15:31.620Z,40.10
2019-04-11T09:18:04.700Z,39.60
2019-04-11T09:20:51.772Z,40.00
2019-04-11T09:23:20.377Z,38.30
2019-04-11T09:25:53.207Z,39.70
2019-04-11T09:28:21.887Z,38.60
2019-04-11T09:31:10.637Z,37.30
2019-04-11T09:33:57.428Z,36.60
2019-04-11T09:36:40.831Z,36.40
2019-04-11T09:39:11.367Z,37.70
2019-04-11T09:41:58.210Z,38.40
2019-04-11T09:44:29.163Z,37.10
2019-04-11T09:47:15.476Z,35.50
2019-04-11T09:49:58.315Z,31.10
2019-04-11T09:52:29.012Z,33.60
2019-04-11T09:55:06.517Z,31.40
2019-04-11T09:57:36.715Z,31.80
2019-04-11T10:00:08.651Z,31.40
2019-04-11T10:02:48.375Z,31.90
2019-04-11T10:05:18.484Z,31.90
2019-04-11T10:08:04.997Z,30.00
2019-04-11T10:10:40.297Z,30.20
2019-04-11T10:13:25.076Z,28.00
2019-04-11T10:16:13.623Z,30.20
2019-04-11T10:18:59.968Z,29.90
2019-04-11T10:21:31.088Z,29.30
2019-04-11T10:24:01.422Z,29.80
2019-04-11T10:26:31.974Z,30.40
2019-04-11T10:29:08.675Z,31.00
2019-04-11T10:31:38.995Z,32.30
2019-04-11T10:34:13.198Z,33.30
2019-04-11T10:36:43.535Z,33.90
2019-04-11T10:39:29.152Z,34.10
2019-04-11T10:42:02.304Z,34.60
2019-04-11T10:44:35.938Z,34.70
2019-04-11T10:47:08.348Z,35.80
2019-04-11T10:49:38.673Z,36.30
2019-04-11T10:52:12.022Z,35.00
2019-04-11T10:54:42.335Z,35.10
2019-04-11T10:57:15.959Z,35.90
2019-04-11T10:59:49.032Z,36.50
2019-04-11T11:02:31.642Z,37.00
2019-04-11T11:05:01.071Z,36.50
2019-04-11T11:07:31.070Z,35.40
2019-04-11T11:10:03.870Z,35.70
2019-04-11T11:12:37.158Z,37.10
2019-04-11T11:15:09.287Z,37.70
2019-04-11T11:18:20.529Z,38.40
2019-04-11T11:20:36.527Z,37.60
2019-04-11T11:23:18.297Z,39.10
2019-04-11T11:26:00.736Z,38.00
2019-04-11T11:28:34.322Z,35.50
2019-04-11T11:31:14.104Z,33.30
2019-04-11T11:33:44.888Z,30.40
2019-04-11T11:36:35.919Z,30.50
2019-04-11T11:39:15.629Z,30.90
2019-04-11T11:42:02.213Z,31.90
2019-04-11T11:44:44.711Z,26.90
2019-04-11T11:47:17.599Z,26.50
2019-04-11T11:49:55.539Z,29.50
2019-04-11T11:52:37.497Z,30.80
2019-04-11T11:55:08.653Z,28.10
2019-04-11T11:57:39.230Z,29.60
2019-04-11T12:00:10.330Z,27.40
2019-04-11T12:02:40.458Z,27.10
2019-04-11T12:05:22.651Z,24.30
2019-04-11T12:07:54.479Z,24.60
2019-04-11T12:10:34.072Z,25.70
2019-04-11T12:13:12.827Z,26.80
2019-04-11T12:15:51.119Z,27.60
2019-04-11T12:18:41.839Z,28.10
2019-04-11T12:21:11.866Z,28.10
2019-04-11T12:23:58.299Z,28.60
2019-04-11T12:26:19.891Z,28.60
2019-04-11T12:28:50.309Z,28.80
2019-04-11T12:31:19.723Z,29.30
2019-04-11T12:33:54.003Z,29.50
2019-04-11T12:36:24.231Z,29.60
2019-04-11T12:38:54.893Z,30.00
2019-04-11T12:41:25.717Z,30.00
2019-04-11T12:44:04.622Z,30.20
2019-04-11T12:46:51.209Z,30.20
2019-04-11T12:49:27.013Z,30.30
2019-04-11T12:52:13.353Z,30.60
2019-04-11T12:54:54.959Z,30.70
2019-04-11T12:57:41.345Z,30.50
2019-04-11T13:00:11.400Z,30.50
2019-04-11T13:02:57.764Z,31.00
2019-04-11T13:05:27.297Z,31.20
2019-04-11T13:07:57.449Z,31.10
2019-04-11T13:10:26.072Z,30.50
2019-04-11T13:12:56.221Z,30.80
2019-04-11T13:15:26.483Z,30.90
2019-04-11T13:18:02.107Z,31.00
2019-04-11T13:20:47.410Z,31.40
2019-04-11T13:23:34.123Z,31.50
2019-04-11T13:26:13.342Z,32.00
2019-04-11T13:28:43.428Z,32.20
2019-04-11T13:31:29.754Z,32.10
2019-04-11T13:34:02.709Z,31.50
2019-04-11T13:36:35.629Z,31.50
2019-04-11T13:39:06.322Z,31.90
2019-04-11T13:41:36.577Z,32.00
2019-04-11T13:44:06.783Z,31.90
2019-04-11T13:46:38.596Z,32.30
2019-04-11T13:49:11.751Z,32.70
2019-04-11T13:51:53.802Z,32.60
2019-04-11T13:54:40.235Z,32.30
2019-04-11T13:57:28.567Z,32.40
2019-04-11T14:00:15.556Z,32.70
2019-04-11T14:02:51.123Z,32.60
2019-04-11T14:05:19.298Z,32.50
2019-04-11T14:07:52.234Z,32.20
2019-04-11T14:10:22.286Z,32.00
2019-04-11T14:12:52.473Z,31.70
2019-04-11T14:15:30.118Z,32.10
2019-04-11T14:18:00.197Z,32.30
2019-04-11T14:20:32.795Z,32.30
2019-04-11T14:23:05.778Z,32.00
2019-04-11T14:25:55.521Z,32.60
2019-04-11T14:28:26.498Z,32.70
2019-04-11T14:31:13.027Z,32.50
2019-04-11T14:33:45.870Z,32.50
2019-04-11T14:36:33.602Z,32.70
2019-04-11T14:39:06.090Z,32.60
2019-04-11T14:41:41.564Z,32.20
2019-04-11T14:44:09.509Z,34.00
2019-04-11T14:46:56.128Z,33.70
2019-04-11T14:49:27.117Z,33.10
2019-04-11T14:51:58.421Z,33.10
2019-04-11T14:54:28.947Z,31.30
2019-04-11T14:57:01.734Z,29.80
2019-04-11T14:59:53.846Z,30.00
2019-04-11T15:02:24.485Z,28.80
2019-04-11T15:04:58.584Z,27.20
2019-04-11T15:07:30.401Z,27.20
2019-04-11T15:10:17.867Z,28.30
2019-04-11T15:12:48.152Z,27.80
2019-04-11T15:15:24.715Z,27.40
2019-04-11T15:17:55.897Z,27.90
2019-04-11T15:20:29.455Z,26.90
2019-04-11T15:23:11.850Z,26.50
2019-04-11T15:25:45.179Z,27.70
2019-04-11T15:28:17.363Z,26.30
2019-04-11T15:30:50.440Z,26.10
2019-04-11T15:33:27.389Z,25.80
2019-04-11T15:35:58.556Z,25.50
2019-04-11T15:38:31.704Z,26.30
2019-04-11T15:41:01.927Z,26.70
2019-04-11T15:43:50.196Z,26.50
2019-04-11T15:46:20.335Z,26.70
2019-04-11T15:49:05.813Z,26.10
2019-04-11T15:51:35.851Z,25.70
2019-04-11T15:54:15.279Z,25.70
2019-04-11T15:56:51.931Z,26.10
2019-04-11T15:59:37.333Z,26.10
2019-04-11T16:02:18.064Z,25.60
2019-04-11T16:04:48.263Z,24.50
2019-04-11T16:07:23.345Z,25.70
2019-04-11T16:09:53.566Z,25.30
2019-04-11T16:12:40.049Z,25.80
2019-04-11T16:15:10.596Z,25.30
2019-04-11T16:17:57.856Z,24.80
2019-04-11T16:20:27.669Z,25.20
2019-04-11T16:22:57.853Z,25.20
2019-04-11T16:25:28.870Z,25.50
2019-04-11T16:28:14.983Z,25.50
2019-04-11T16:30:45.408Z,25.90
2019-04-11T16:33:15.634Z,26.40
2019-04-11T16:35:48.726Z,27.00
2019-04-11T16:38:31.221Z,27.30
2019-04-11T16:41:01.522Z,27.60
2019-04-11T16:43:32.080Z,27.90
2019-04-11T16:46:18.650Z,28.10
2019-04-11T16:48:47.233Z,27.80
2019-04-11T16:51:15.766Z,28.60
2019-04-11T16:53:44.193Z,28.60
2019-04-11T16:56:13.288Z,29.20
2019-04-11T16:58:42.013Z,28.90
2019-04-11T17:01:10.581Z,29.30
2019-04-11T17:03:39.167Z,29.30
2019-04-11T17:06:09.485Z,29.40
2019-04-11T17:08:48.718Z,29.40
2019-04-11T17:11:18.945Z,29.40
2019-04-11T17:13:47.698Z,29.60
2019-04-11T17:16:16.690Z,29.40
2019-04-11T17:18:45.271Z,29.50
2019-04-11T17:21:13.884Z,29.70
2019-04-11T17:23:42.461Z,29.70
2019-04-11T17:26:10.953Z,29.60
2019-04-11T17:28:39.631Z,30.30
2019-04-11T17:31:08.216Z,30.00
2019-04-11T17:33:36.772Z,30.10
2019-04-11T17:36:05.355Z,30.20
2019-04-11T17:38:36.891Z,30.00
2019-04-11T17:41:04.179Z,30.00
2019-04-11T17:43:32.742Z,30.10
2019-04-11T17:46:01.534Z,30.10
2019-04-11T17:48:30.542Z,30.00
2019-04-11T17:50:59.001Z,30.30
2019-04-11T17:53:27.706Z,30.30
2019-04-11T17:55:56.394Z,30.50
2019-04-11T17:58:27.262Z,30.60
2019-04-11T18:00:56.922Z,30.40
2019-04-11T18:03:25.485Z,30.70
2019-04-11T18:05:53.966Z,30.60
2019-04-11T18:08:23.099Z,30.80
2019-04-11T18:10:55.786Z,30.80
2019-04-11T18:13:21.866Z,30.70
2019-04-11T18:15:50.445Z,30.80
2019-04-11T18:18:19.163Z,30.90
2019-04-11T18:20:47.739Z,30.80
2019-04-11T18:23:19.613Z,30.70
2019-04-11T18:25:46.542Z,31.10
2019-04-11T18:28:15.106Z,31.20
2019-04-11T18:30:43.893Z,31.40
2019-04-11T18:33:12.496Z,31.40
2019-04-11T18:35:40.978Z,31.40
2019-04-11T18:38:09.533Z,31.60
2019-04-11T18:40:40.274Z,31.50
2019-04-11T18:43:08.357Z,31.60
2019-04-11T18:45:36.940Z,31.60
2019-04-11T18:48:05.448Z,31.70
2019-04-11T18:50:34.001Z,31.90
2019-04-11T18:53:02.587Z,32.30
2019-04-11T18:55:31.170Z,32.60
2019-04-11T18:58:01.649Z,32.30
2019-04-11T19:00:29.865Z,32.20
2019-04-11T19:02:58.505Z,32.30
2019-04-11T19:05:28.957Z,32.20
2019-04-11T19:07:57.233Z,32.60
2019-04-11T19:10:25.701Z,32.90
2019-04-11T19:12:54.287Z,32.80
2019-04-11T19:15:22.771Z,33.20
2019-04-11T19:18:05.310Z,33.40
2019-04-11T19:20:21.699Z,33.60
2019-04-11T19:22:50.397Z,33.40
2019-04-11T19:25:18.970Z,33.70
2019-04-11T19:27:50.466Z,34.50
2019-04-11T19:30:18.050Z,34.70
2019-04-11T19:32:46.533Z,35.10
2019-04-11T19:35:15.038Z,35.00
2019-04-11T19:37:43.518Z,35.30
2019-04-11T19:40:16.096Z,36.60
2019-04-11T19:42:42.189Z,36.80
2019-04-11T19:45:10.774Z,36.90
2019-04-11T19:47:39.361Z,37.10
2019-04-11T19:50:07.973Z,41.20
2019-04-11T19:52:45.207Z,39.70
2019-04-11T19:55:08.344Z,38.90
2019-04-11T19:57:36.974Z,38.30
2019-04-11T20:00:07.818Z,38.50
2019-04-11T20:02:36.477Z,38.50
2019-04-11T20:05:05.921Z,38.70
2019-04-11T20:07:34.590Z,39.00
2019-04-11T20:10:04.170Z,38.70
2019-04-11T20:12:32.758Z,38.60
2019-04-11T20:15:04.670Z,39.10
2019-04-11T20:17:43.417Z,39.50
2019-04-11T20:20:06.544Z,40.00
2019-04-11T20:22:32.022Z,40.30
2019-04-11T20:25:00.577Z,39.50
2019-04-11T20:27:29.186Z,39.60
2019-04-11T20:29:57.768Z,40.00
2019-04-11T20:32:26.502Z,39.90
2019-04-11T20:34:55.036Z,40.50
2019-04-11T20:37:24.579Z,41.10
2019-04-11T20:39:53.197Z,40.30
2019-04-11T20:42:23.785Z,41.20
2019-04-11T20:44:51.852Z,40.40
2019-04-11T20:47:20.487Z,40.70
2019-04-11T20:49:49.276Z,40.60
2019-04-11T20:52:17.984Z,40.90
2019-04-11T20:54:46.566Z,41.60
2019-04-11T20:57:25.221Z,41.70
2019-04-11T20:59:45.274Z,40.60
2019-04-11T21:02:14.033Z,40.60
2019-04-11T21:04:42.824Z,40.40
2019-04-11T21:07:12.408Z,40.40
2019-04-11T21:09:42.494Z,40.40
2019-04-11T21:12:10.976Z,40.20
2019-04-11T21:14:39.498Z,40.20
2019-04-11T21:17:08.105Z,40.20
2019-04-11T21:19:36.682Z,40.30
2019-04-11T21:22:05.370Z,40.10
2019-04-11T21:24:33.938Z,40.50
2019-04-11T21:27:02.556Z,40.60
2019-04-11T21:29:31.297Z,40.70
2019-04-11T21:32:01.081Z,40.70
2019-04-11T21:34:32.404Z,40.90
2019-04-11T21:37:02.560Z,40.80
2019-04-11T21:39:30.625Z,41.60
2019-04-11T21:41:59.249Z,41.00
2019-04-11T21:44:27.949Z,41.10
2019-04-11T21:46:56.485Z,40.80
2019-04-11T21:49:25.075Z,40.70
2019-04-11T21:51:54.296Z,40.70
2019-04-11T21:54:22.859Z,40.80
2019-04-11T21:56:51.457Z,40.70
2019-04-11T21:59:21.024Z,40.60
2019-04-11T22:01:53.802Z,40.50
2019-04-11T22:04:19.975Z,40.90
2019-04-11T22:06:49.777Z,41.30
2019-04-11T22:09:18.439Z,41.20
2019-04-11T22:11:47.151Z,41.30
2019-04-11T22:14:15.635Z,41.50
2019-04-11T22:16:45.351Z,41.20
2019-04-11T22:19:14.510Z,41.40
2019-04-11T22:21:45.300Z,41.30
2019-04-11T22:24:13.858Z,41.40
2019-04-11T22:26:43.842Z,41.40
2019-04-11T22:29:12.446Z,41.50
2019-04-11T22:31:42.641Z,40.90
2019-04-11T22:34:22.086Z,41.50
2019-04-11T22:36:50.563Z,40.90
2019-04-11T22:39:19.370Z,41.60
2019-04-11T22:41:48.029Z,41.40
2019-04-11T22:44:16.610Z,41.70
2019-04-11T22:46:45.298Z,41.60
2019-04-11T22:49:13.801Z,41.60
2019-04-11T22:51:43.500Z,41.90
2019-04-11T22:54:13.235Z,41.30
2019-04-11T22:56:42.410Z,41.20
2019-04-11T23:00:05.986Z,41.00
2019-04-11T23:02:47.344Z,41.50
2019-04-11T23:05:17.418Z,41.60
2019-04-11T23:07:45.961Z,41.70
2019-04-11T23:10:17.119Z,41.80
2019-04-11T23:12:47.331Z,41.80
2019-04-11T23:15:15.944Z,41.50
2019-04-11T23:17:47.056Z,41.60
2019-04-11T23:20:17.694Z,41.40
2019-04-11T23:22:47.878Z,41.50
2019-04-11T23:25:16.358Z,41.70
2019-04-11T23:27:45.068Z,41.50
2019-04-11T23:30:15.980Z,41.50
2019-04-11T23:32:45.481Z,41.60
2019-04-11T23:35:17.298Z,41.70
2019-04-11T23:37:52.077Z,41.80
2019-04-11T23:40:22.290Z,41.90
2019-04-11T23:42:51.101Z,42.00
2019-04-11T23:45:21.393Z,42.00
2019-04-11T23:47:53.089Z,41.80
2019-04-11T23:50:20.336Z,41.70
2019-04-11T23:52:51.718Z,41.90
2019-04-11T23:55:20.230Z,41.80
2019-04-11T23:57:48.841Z,42.20
